createdAt,value
2022-11-10T00:02:32.995Z,6.03
2022-11-10T00:05:18.149Z,11.73
2022-11-10T00:08:04.617Z,6.83
2022-11-10T00:10:58.545Z,4.93
2022-11-10T00:14:01.904Z,5.57
2022-11-10T00:17:02.565Z,6.47
2022-11-10T00:19:47.519Z,9.23
2022-11-10T00:22:36.617Z,6.30
2022-11-10T00:25:22.259Z,10.03
2022-11-10T00:28:07.167Z,8.97
2022-11-10T00:30:52.481Z,9.93
2022-11-10T00:33:38.518Z,11.87
2022-11-10T00:36:23.868Z,8.87
2022-11-10T00:39:09.386Z,9.37
2022-11-10T00:41:54.521Z,8.20
2022-11-10T00:44:39.599Z,8.53
2022-11-10T00:47:24.810Z,6.93
2022-11-10T00:50:10.110Z,10.37
2022-11-10T00:52:55.340Z,4.70
2022-11-10T00:55:41.268Z,4.47
2022-11-10T00:58:26.470Z,8.40
2022-11-10T01:01:12.413Z,8.87
2022-11-10T01:03:57.866Z,7.73
2022-11-10T01:06:42.968Z,10.17
2022-11-10T01:09:28.307Z,11.97
2022-11-10T01:12:14.531Z,4.90
2022-11-10T01:14:59.639Z,6.30
2022-11-10T01:17:44.784Z,9.47
2022-11-10T01:20:30.034Z,9.90
2022-11-10T01:23:15.238Z,7.87
2022-11-10T01:26:01.367Z,13.10
2022-11-10T01:28:46.909Z,11.27
2022-11-10T01:31:31.873Z,7.10
2022-11-10T01:34:16.947Z,8.83
2022-11-10T01:37:02.388Z,11.60
2022-11-10T01:39:47.326Z,5.50
2022-11-10T01:42:46.048Z,7.80
2022-11-10T01:45:34.032Z,12.20
2022-11-10T01:48:28.289Z,7.43
2022-11-10T01:51:19.168Z,9.53
2022-11-10T01:54:06.406Z,9.77
2022-11-10T01:56:53.456Z,13.53
2022-11-10T01:59:43.591Z,9.87
2022-11-10T02:02:30.717Z,13.17
2022-11-10T02:05:16.120Z,8.73
2022-11-10T02:08:02.113Z,8.33
2022-11-10T02:10:47.401Z,15.70
2022-11-10T02:13:32.845Z,8.17
2022-11-10T02:16:19.177Z,7.87
2022-11-10T02:19:36.500Z,5.87
2022-11-10T02:22:21.472Z,7.03
2022-11-10T02:25:06.867Z,13.20
2022-11-10T02:27:52.099Z,10.23
2022-11-10T02:30:37.431Z,8.77
2022-11-10T02:33:22.959Z,8.57
2022-11-10T02:36:08.709Z,6.80
2022-11-10T02:38:53.984Z,11.20
2022-11-10T02:41:39.354Z,8.33
2022-11-10T02:44:24.685Z,13.03
2022-11-10T02:47:09.992Z,7.90
2022-11-10T02:49:55.532Z,11.53
2022-11-10T02:52:40.635Z,11.27
2022-11-10T02:55:26.399Z,10.23
2022-11-10T02:58:11.778Z,12.93
2022-11-10T03:00:56.946Z,8.33
2022-11-10T03:03:42.294Z,12.10
2022-11-10T03:06:27.395Z,7.57
2022-11-10T03:09:12.552Z,8.33
2022-11-10T03:11:57.836Z,9.93
2022-11-10T03:14:42.804Z,9.00
2022-11-10T03:17:28.951Z,10.67
2022-11-10T03:20:14.463Z,7.30
2022-11-10T03:23:03.610Z,8.00
2022-11-10T03:25:48.943Z,6.27
2022-11-10T03:28:34.295Z,9.17
2022-11-10T03:31:19.573Z,9.87
2022-11-10T03:34:04.809Z,13.30
2022-11-10T03:36:50.140Z,10.67
2022-11-10T03:39:35.147Z,7.83
2022-11-10T03:42:20.670Z,9.03
2022-11-10T03:45:05.934Z,12.70
2022-11-10T03:47:51.707Z,11.03
2022-11-10T03:50:37.112Z,13.03
2022-11-10T03:53:22.240Z,10.97
2022-11-10T03:56:07.961Z,8.90
2022-11-10T03:58:53.088Z,10.07
2022-11-10T04:01:38.671Z,9.27
2022-11-10T04:04:42.278Z,11.67
2022-11-10T04:07:45.723Z,12.67
2022-11-10T04:10:30.930Z,11.00
2022-11-10T04:13:34.642Z,6.43
2022-11-10T04:16:19.976Z,7.77
2022-11-10T04:19:05.364Z,8.83
2022-11-10T04:21:50.648Z,11.13
2022-11-10T04:24:35.773Z,8.63
2022-11-10T04:27:20.802Z,9.10
2022-11-10T04:30:06.221Z,12.27
2022-11-10T04:32:53.454Z,8.93
2022-11-10T04:35:38.489Z,12.27
2022-11-10T04:38:23.703Z,11.10
2022-11-10T04:41:09.815Z,15.03
2022-11-10T04:43:54.926Z,8.27
2022-11-10T04:46:40.524Z,12.87
2022-11-10T04:49:25.802Z,9.00
2022-11-10T04:52:10.836Z,10.97
2022-11-10T04:54:56.183Z,9.13
2022-11-10T04:57:42.224Z,12.80
2022-11-10T05:00:27.676Z,15.23
2022-11-10T05:03:13.325Z,10.50
2022-11-10T05:05:58.506Z,13.50
2022-11-10T05:08:44.137Z,10.20
2022-11-10T05:11:29.696Z,11.07
2022-11-10T05:14:14.896Z,13.33
2022-11-10T05:17:00.340Z,10.67
2022-11-10T05:19:47.460Z,12.20
2022-11-10T05:22:36.600Z,9.33
2022-11-10T05:25:22.090Z,7.43
2022-11-10T05:28:08.411Z,12.27
2022-11-10T05:30:53.512Z,14.43
2022-11-10T05:33:39.193Z,8.97
2022-11-10T05:36:24.322Z,10.67
2022-11-10T05:39:09.722Z,16.87
2022-11-10T05:41:54.715Z,12.57
2022-11-10T05:44:39.684Z,14.63
2022-11-10T05:47:24.613Z,16.53
2022-11-10T05:50:09.912Z,10.43
2022-11-10T05:52:55.381Z,10.77
2022-11-10T05:55:40.756Z,12.17
2022-11-10T05:58:25.782Z,12.67
2022-11-10T06:01:11.031Z,8.90
2022-11-10T06:03:57.437Z,9.23
2022-11-10T06:06:42.683Z,8.40
2022-11-10T06:09:28.035Z,9.63
2022-11-10T06:12:14.455Z,7.77
2022-11-10T06:14:59.676Z,8.33
2022-11-10T06:17:46.674Z,9.97
2022-11-10T06:20:32.227Z,10.50
2022-11-10T06:23:17.365Z,11.60
2022-11-10T06:26:02.389Z,9.13
2022-11-10T06:28:47.290Z,12.47
2022-11-10T06:31:32.370Z,11.23
2022-11-10T06:34:17.424Z,12.13
2022-11-10T06:37:02.810Z,12.83
2022-11-10T06:39:50.145Z,9.90
2022-11-10T06:42:38.029Z,13.93
2022-11-10T06:45:23.577Z,13.80
2022-11-10T06:48:13.217Z,12.93
2022-11-10T06:51:01.776Z,18.90
2022-11-10T06:53:47.577Z,29.27
2022-11-10T06:56:33.071Z,29.20
2022-11-10T06:59:18.055Z,24.37
2022-11-10T07:02:03.140Z,16.20
2022-11-10T07:04:50.724Z,21.83
2022-11-10T07:07:35.985Z,25.23
2022-11-10T07:10:21.016Z,28.63
2022-11-10T07:13:06.244Z,19.97
2022-11-10T07:15:52.408Z,21.93
2022-11-10T07:18:38.044Z,20.07
2022-11-10T07:21:23.250Z,17.67
2022-11-10T07:24:08.869Z,16.07
2022-11-10T07:26:54.009Z,12.33
2022-11-10T07:29:39.950Z,13.07
2022-11-10T07:32:24.952Z,8.73
2022-11-10T07:35:09.826Z,9.83
2022-11-10T07:37:58.679Z,12.50
2022-11-10T07:40:43.999Z,8.33
2022-11-10T07:43:29.070Z,15.30
2022-11-10T07:46:15.184Z,11.43
2022-11-10T07:49:00.255Z,8.43
2022-11-10T07:51:45.757Z,10.40
2022-11-10T07:54:31.070Z,7.93
2022-11-10T07:57:16.111Z,7.33
2022-11-10T08:00:01.864Z,7.63
2022-11-10T08:02:47.323Z,11.87
2022-11-10T08:05:32.735Z,11.43
2022-11-10T08:08:18.563Z,7.80
2022-11-10T08:11:04.266Z,6.80
2022-11-10T08:13:49.688Z,15.00
2022-11-10T08:16:34.593Z,9.97
2022-11-10T08:19:19.854Z,14.17
2022-11-10T08:22:05.310Z,11.33
2022-11-10T08:24:56.510Z,12.13
2022-11-10T08:27:42.093Z,12.27
2022-11-10T08:30:30.706Z,8.40
2022-11-10T08:33:17.235Z,8.47
2022-11-10T08:36:02.954Z,13.80
2022-11-10T08:38:48.114Z,12.23
2022-11-10T08:41:33.525Z,10.77
2022-11-10T08:44:20.996Z,6.63
2022-11-10T08:47:06.474Z,8.47
2022-11-10T08:49:51.572Z,13.33
2022-11-10T08:52:37.227Z,22.07
2022-11-10T08:55:22.234Z,13.23
2022-11-10T08:58:08.644Z,12.20
2022-11-10T09:00:53.918Z,7.83
2022-11-10T09:03:39.196Z,13.10
2022-11-10T09:06:24.295Z,11.00
2022-11-10T09:09:09.909Z,11.40
2022-11-10T09:11:55.426Z,14.57
2022-11-10T09:14:44.074Z,19.83
2022-11-10T09:17:29.092Z,10.63
2022-11-10T09:20:15.030Z,11.67
2022-11-10T09:23:07.201Z,12.80
2022-11-10T09:25:53.480Z,15.03
2022-11-10T09:28:38.455Z,10.10
2022-11-10T09:31:23.682Z,14.07
2022-11-10T09:34:10.044Z,15.90
2022-11-10T09:36:55.360Z,8.77
2022-11-10T09:39:40.727Z,12.30
2022-11-10T09:42:34.147Z,8.70
2022-11-10T09:45:40.997Z,13.53
2022-11-10T09:48:28.561Z,7.63
2022-11-10T09:51:16.529Z,7.77
2022-11-10T09:54:09.511Z,7.03
2022-11-10T09:57:00.275Z,9.20
2022-11-10T09:59:45.600Z,8.80
2022-11-10T10:02:35.614Z,8.20
2022-11-10T10:05:46.650Z,9.13
2022-11-10T10:08:39.443Z,11.37
2022-11-10T10:11:40.059Z,11.93
2022-11-10T10:14:40.112Z,8.30
2022-11-10T10:17:27.971Z,7.13
2022-11-10T10:20:35.306Z,6.87
2022-11-10T10:23:24.150Z,11.20
2022-11-10T10:26:16.717Z,5.43
2022-11-10T10:29:05.796Z,8.20
2022-11-10T10:31:52.288Z,7.07
2022-11-10T10:34:37.393Z,6.37
2022-11-10T10:37:24.351Z,10.47
2022-11-10T10:40:20.805Z,8.87
2022-11-10T10:43:06.319Z,7.63
2022-11-10T10:46:11.978Z,4.97
2022-11-10T10:49:31.839Z,5.27
2022-11-10T10:52:18.049Z,6.10
2022-11-10T10:55:07.437Z,8.20
2022-11-10T10:57:58.067Z,4.03
2022-11-10T11:00:48.022Z,6.23
2022-11-10T11:03:40.598Z,4.87
2022-11-10T11:06:27.206Z,8.23
2022-11-10T11:09:16.836Z,7.37
2022-11-10T11:12:04.037Z,11.57
2022-11-10T11:14:49.396Z,9.53
2022-11-10T11:17:34.692Z,11.23
2022-11-10T11:20:19.874Z,8.43
2022-11-10T11:23:17.113Z,5.30
2022-11-10T11:26:10.693Z,4.97
2022-11-10T11:29:14.499Z,8.87
2022-11-10T11:32:02.519Z,12.70
2022-11-10T11:35:10.966Z,9.37
2022-11-10T11:37:59.109Z,5.67
2022-11-10T11:40:43.945Z,6.77
2022-11-10T11:43:29.200Z,6.03
2022-11-10T11:46:30.987Z,7.20
2022-11-10T11:49:30.753Z,6.50
2022-11-10T11:52:39.150Z,5.20
2022-11-10T11:55:43.178Z,5.23
2022-11-10T11:58:41.867Z,4.00
2022-11-10T12:02:02.873Z,8.10
2022-11-10T12:05:06.614Z,4.03
2022-11-10T12:08:06.716Z,6.57
2022-11-10T12:11:07.251Z,3.27
2022-11-10T12:13:52.270Z,7.40
2022-11-10T12:16:38.667Z,3.73
2022-11-10T12:19:37.876Z,5.73
2022-11-10T12:22:34.692Z,3.10
2022-11-10T12:25:26.371Z,6.20
2022-11-10T12:28:37.560Z,3.77
2022-11-10T12:31:25.130Z,5.50
2022-11-10T12:34:33.629Z,4.03
2022-11-10T12:37:27.524Z,4.50
2022-11-10T12:40:21.703Z,5.20
2022-11-10T12:43:12.155Z,4.40
2022-11-10T12:46:03.227Z,6.50
2022-11-10T12:48:54.470Z,3.77
2022-11-10T12:51:55.531Z,4.93
2022-11-10T12:54:41.549Z,5.73
2022-11-10T12:57:27.292Z,5.83
2022-11-10T13:00:28.623Z,3.13
2022-11-10T13:03:28.259Z,5.07
2022-11-10T13:06:25.682Z,3.37
2022-11-10T13:09:22.104Z,6.63
2022-11-10T13:12:07.117Z,5.50
2022-11-10T13:14:52.750Z,4.17
2022-11-10T13:17:41.166Z,4.50
2022-11-10T13:20:41.368Z,5.80
2022-11-10T13:23:31.029Z,4.07
2022-11-10T13:26:34.755Z,4.50
2022-11-10T13:29:29.526Z,3.97
2022-11-10T13:32:18.891Z,2.93
2022-11-10T13:35:22.502Z,2.70
2022-11-10T13:38:19.070Z,4.27
2022-11-10T13:41:16.696Z,5.90
2022-11-10T13:44:02.937Z,2.77
2022-11-10T13:47:06.734Z,5.60
2022-11-10T13:49:51.830Z,3.87
2022-11-10T13:52:43.081Z,5.00
2022-11-10T13:55:28.251Z,6.00
2022-11-10T13:58:40.370Z,2.93
2022-11-10T14:01:28.280Z,2.30
2022-11-10T14:04:34.912Z,4.33
2022-11-10T14:07:21.128Z,5.73
2022-11-10T14:10:13.012Z,4.00
2022-11-10T14:13:03.887Z,3.27
2022-11-10T14:15:49.934Z,3.00
2022-11-10T14:18:45.393Z,4.90
2022-11-10T14:21:37.332Z,4.90
2022-11-10T14:24:26.019Z,4.63
2022-11-10T14:27:16.153Z,5.57
2022-11-10T14:30:18.374Z,5.73
2022-11-10T14:33:06.415Z,3.27
2022-11-10T14:35:52.429Z,3.67
2022-11-10T14:38:42.962Z,5.60
2022-11-10T14:41:28.214Z,4.60
2022-11-10T14:44:15.608Z,2.40
2022-11-10T14:47:22.679Z,3.93
2022-11-10T14:50:14.272Z,7.97
2022-11-10T14:53:03.946Z,6.27
2022-11-10T14:55:54.458Z,4.70
2022-11-10T14:58:42.140Z,5.80
2022-11-10T15:01:34.685Z,5.93
2022-11-10T15:04:20.408Z,2.90
2022-11-10T15:07:06.118Z,8.57
2022-11-10T15:10:23.855Z,5.77
2022-11-10T15:13:11.753Z,6.23
2022-11-10T15:16:15.619Z,8.77
2022-11-10T15:19:27.394Z,6.43
2022-11-10T15:22:12.618Z,3.80
2022-11-10T15:25:01.338Z,7.07
2022-11-10T15:28:16.371Z,4.10
2022-11-10T15:31:12.678Z,4.70
2022-11-10T15:34:02.736Z,4.40
2022-11-10T15:36:47.837Z,5.63
2022-11-10T15:39:33.070Z,7.60
2022-11-10T15:42:24.299Z,6.33
2022-11-10T15:45:09.795Z,5.67
2022-11-10T15:47:55.097Z,3.13
2022-11-10T15:50:45.556Z,5.37
2022-11-10T15:53:33.823Z,3.47
2022-11-10T15:56:20.282Z,4.97
2022-11-10T15:59:05.512Z,4.67
2022-11-10T16:01:50.798Z,6.07
2022-11-10T16:04:35.984Z,5.50
2022-11-10T16:07:21.308Z,6.33
2022-11-10T16:10:06.803Z,5.87
2022-11-10T16:12:52.215Z,5.20
2022-11-10T16:15:37.789Z,3.70
2022-11-10T16:18:25.206Z,5.03
2022-11-10T16:21:12.183Z,2.90
2022-11-10T16:23:57.741Z,3.23
2022-11-10T16:26:43.019Z,5.70
2022-11-10T16:29:28.093Z,3.63
2022-11-10T16:32:13.651Z,4.73
2022-11-10T16:35:01.518Z,5.37
2022-11-10T16:37:47.059Z,3.63
2022-11-10T16:40:32.169Z,4.50
2022-11-10T16:43:17.843Z,4.50
2022-11-10T16:46:05.783Z,4.17
2022-11-10T16:48:52.323Z,5.53
2022-11-10T16:51:42.943Z,3.87
2022-11-10T16:54:31.276Z,6.30
2022-11-10T16:57:17.254Z,5.40
2022-11-10T17:00:03.353Z,4.07
2022-11-10T17:02:58.284Z,4.57
2022-11-10T17:05:43.345Z,6.97
2022-11-10T17:08:30.104Z,6.53
2022-11-10T17:11:16.454Z,4.50
2022-11-10T17:14:01.922Z,4.40
2022-11-10T17:16:47.472Z,4.57
2022-11-10T17:19:33.493Z,4.57
2022-11-10T17:22:21.524Z,6.87
2022-11-10T17:25:13.230Z,3.73
2022-11-10T17:27:58.696Z,4.57
2022-11-10T17:30:45.193Z,4.10
2022-11-10T17:33:31.360Z,6.40
2022-11-10T17:36:21.312Z,5.03
2022-11-10T17:39:09.557Z,5.53
2022-11-10T17:41:54.841Z,4.27
2022-11-10T17:44:40.727Z,4.90
2022-11-10T17:47:25.695Z,5.17
2022-11-10T17:50:11.242Z,9.30
2022-11-10T17:52:56.674Z,38.43
2022-11-10T17:55:42.261Z,71.27
2022-11-10T17:58:27.927Z,21.60
2022-11-10T18:01:14.592Z,6.43
2022-11-10T18:04:00.588Z,6.97
2022-11-10T18:06:45.796Z,5.57
2022-11-10T18:09:31.007Z,6.73
2022-11-10T18:12:16.191Z,6.73
2022-11-10T18:15:01.143Z,6.90
2022-11-10T18:17:46.495Z,7.80
2022-11-10T18:20:31.620Z,7.17
2022-11-10T18:23:16.800Z,5.33
2022-11-10T18:26:08.717Z,6.27
2022-11-10T18:28:54.167Z,3.20
2022-11-10T18:31:39.264Z,4.23
2022-11-10T18:34:25.640Z,4.57
2022-11-10T18:37:11.764Z,4.50
2022-11-10T18:39:57.020Z,4.03
2022-11-10T18:42:44.568Z,4.93
2022-11-10T18:45:30.116Z,5.43
2022-11-10T18:48:15.527Z,5.07
2022-11-10T18:51:04.629Z,3.93
2022-11-10T18:53:50.096Z,3.17
2022-11-10T18:56:36.045Z,5.63
2022-11-10T18:59:21.478Z,5.77
2022-11-10T19:02:07.007Z,5.13
2022-11-10T19:04:53.826Z,5.27
2022-11-10T19:07:39.092Z,6.03
2022-11-10T19:10:24.396Z,5.87
2022-11-10T19:13:09.792Z,5.63
2022-11-10T19:15:56.927Z,4.33
2022-11-10T19:18:43.324Z,3.00
2022-11-10T19:21:28.613Z,3.30
2022-11-10T19:24:25.794Z,5.17
2022-11-10T19:27:14.148Z,3.67
2022-11-10T19:29:59.356Z,3.80
2022-11-10T19:32:44.567Z,5.47
2022-11-10T19:35:30.486Z,6.30
2022-11-10T19:38:16.168Z,6.57
2022-11-10T19:41:04.546Z,6.13
2022-11-10T19:43:50.093Z,7.27
2022-11-10T19:46:37.017Z,5.10
2022-11-10T19:49:22.425Z,3.57
2022-11-10T19:52:07.528Z,4.87
2022-11-10T19:54:57.320Z,4.80
2022-11-10T19:57:44.657Z,2.83
2022-11-10T20:00:30.011Z,5.93
2022-11-10T20:03:15.187Z,3.47
2022-11-10T20:06:08.488Z,7.37
2022-11-10T20:08:53.872Z,5.53
2022-11-10T20:11:39.298Z,5.07
2022-11-10T20:14:25.267Z,9.93
2022-11-10T20:17:10.831Z,4.90
2022-11-10T20:19:56.280Z,3.47
2022-11-10T20:22:41.397Z,4.13
2022-11-10T20:25:27.091Z,4.50
2022-11-10T20:28:13.962Z,3.97
2022-11-10T20:31:00.507Z,8.10
2022-11-10T20:33:46.619Z,9.03
2022-11-10T20:36:34.100Z,4.90
2022-11-10T20:39:19.414Z,5.97
2022-11-10T20:42:04.554Z,9.10
2022-11-10T20:44:49.924Z,6.33
2022-11-10T20:47:35.159Z,5.73
2022-11-10T20:50:24.210Z,3.83
2022-11-10T20:53:11.953Z,5.73
2022-11-10T20:55:58.564Z,6.17
2022-11-10T20:58:45.177Z,5.60
2022-11-10T21:01:30.855Z,6.93
2022-11-10T21:04:16.179Z,4.07
2022-11-10T21:07:01.349Z,7.07
2022-11-10T21:09:46.479Z,6.60
2022-11-10T21:12:49.941Z,5.33
2022-11-10T21:15:39.451Z,7.83
2022-11-10T21:18:29.287Z,3.03
2022-11-10T21:21:21.877Z,5.90
2022-11-10T21:24:08.529Z,4.17
2022-11-10T21:26:54.842Z,5.40
2022-11-10T21:29:42.300Z,4.53
2022-11-10T21:32:27.916Z,3.03
2022-11-10T21:35:13.221Z,3.70
2022-11-10T21:37:58.874Z,3.87
2022-11-10T21:40:43.854Z,5.27
2022-11-10T21:43:29.405Z,3.00
2022-11-10T21:46:14.457Z,5.63
2022-11-10T21:49:04.559Z,4.63
2022-11-10T21:51:54.283Z,4.90
2022-11-10T21:54:39.757Z,2.33
2022-11-10T21:57:25.503Z,9.07
2022-11-10T22:00:11.643Z,4.97
2022-11-10T22:02:58.351Z,4.30
2022-11-10T22:05:43.996Z,5.73
2022-11-10T22:08:29.294Z,4.13
2022-11-10T22:11:33.107Z,5.37
2022-11-10T22:14:37.198Z,3.40
2022-11-10T22:17:41.271Z,3.83
2022-11-10T22:20:26.558Z,6.80
2022-11-10T22:23:12.010Z,3.87
2022-11-10T22:25:57.407Z,2.43
2022-11-10T22:28:42.983Z,2.43
2022-11-10T22:31:28.324Z,4.50
2022-11-10T22:34:13.859Z,2.80
2022-11-10T22:36:59.754Z,5.13
2022-11-10T22:40:03.683Z,5.23
2022-11-10T22:43:07.847Z,4.43
2022-11-10T22:45:53.174Z,5.10
2022-11-10T22:48:38.704Z,4.53
2022-11-10T22:51:24.471Z,2.63
2022-11-10T22:54:10.890Z,3.00
2022-11-10T22:56:56.519Z,6.07
2022-11-10T22:59:42.015Z,4.43
2022-11-10T23:02:27.346Z,6.70
2022-11-10T23:05:12.651Z,3.77
2022-11-10T23:07:58.207Z,3.20
2022-11-10T23:10:43.844Z,5.77
2022-11-10T23:13:29.163Z,4.17
2022-11-10T23:16:17.725Z,2.87
2022-11-10T23:19:03.208Z,2.80
2022-11-10T23:21:50.883Z,3.40
2022-11-10T23:24:37.736Z,4.83
2022-11-10T23:27:23.108Z,2.80
2022-11-10T23:30:08.396Z,8.83
2022-11-10T23:32:54.138Z,6.07
2022-11-10T23:35:39.649Z,5.27
2022-11-10T23:38:25.307Z,6.37
2022-11-10T23:41:15.096Z,3.93
2022-11-10T23:44:00.655Z,4.17
2022-11-10T23:46:45.739Z,6.00
2022-11-10T23:49:30.991Z,3.90
2022-11-10T23:52:16.310Z,2.73
2022-11-10T23:55:01.366Z,3.97
2022-11-10T23:57:46.537Z,2.57
